Saturday, November 17, 2018, 10:13 AM EST
Back to Local

KELZ, Wellsville Municipal Airport

Location: Wellsville, NY, United States Lat: 42.1
Local Time: 10:13 AM EST (15:13 GMT) Lon: -78
Time Zone: US/Eastern Elev: 2122 ft

Show me the last for .
Show Decoded

2018-11-17 09:52 METAR KELZ 171452Z AUTO 28009KT 3SM UP BR BKN012 OVC019 02/00 A3011 RMK AO2
                 RAB24E45UPB27E29B45FZRAE05SNB05E24 P0000 I1000 $ =
2018-11-17 09:38 METAR KELZ 171438Z AUTO 27009G18KT 4SM -RA SCT011 OVC016 02/M01 A3011 RMK AO2
                 RAB24UPB27E29FZRAE05SNB05E24 P0000 I1000 T00221006 $ =
2018-11-17 09:23 METAR KELZ 171423Z AUTO 28013G24KT 4SM -SN BKN009 BKN019 OVC024 02/M01 A3011 RMK
                 AO2 FZRAE05SNB05 P0000 I1000 T00221006 $ =
2018-11-17 09:18 METAR KELZ 171418Z AUTO 28016G24KT 2SM -SN SCT009 BKN014 OVC022 02/M01 A3011 RMK
                 AO2 FZRAE05SNB05 P0000 I1000 T00221006 $ =
2018-11-17 09:06 METAR KELZ 171406Z AUTO 26006G16KT 1 3/4SM -SN BR BKN009 OVC014 02/00 A3011 RMK
                 AO2 FZRAE05SNB05 P0000 I1000 T00170000 $ =
2018-11-17 08:56 METAR KELZ 171356Z AUTO 26008KT 2 1/2SM -FZRA BR BKN009 OVC013 02/00 A3010 RMK
                 AO2 RAB22E43FZRAB43 SLP215 P0000 I1001 T00170000 $ =
2018-11-17 08:49 METAR KELZ 171349Z AUTO 27011KT 2 1/2SM -FZRA BR OVC009 02/00 A3010 RMK AO2
                 RAB22E43FZRAB43 CIG 007V014 P0000 I1001 T00170000 $ =
2018-11-17 08:42 METAR KELZ 171342Z AUTO 27013KT 4SM -RA BR OVC009 02/M01 A3010 RMK AO2 RAB22 CIG
                 007V013 P0000 I1000 T00171006 $ =
2018-11-17 08:04 METAR KELZ 171304Z AUTO 26006KT 6SM BR BKN013 OVC021 02/M01 A3009 RMK AO2
                 T00171006 $ =
2018-11-17 07:56 METAR KELZ 171256Z AUTO 25007KT 6SM HZ BKN015 OVC023 02/M01 A3008 RMK AO2 SLP207
                 T00171011 $ =
2018-11-17 06:56 METAR KELZ 171156Z AUTO 26008KT 230V290 10SM FEW015 OVC024 02/M01 A3006 RMK AO2
                 SLP201 60000 7//// T00171011 10022 20017 51018 $ =
2018-11-17 05:56 METAR KELZ 171056Z AUTO 27009KT 10SM OVC017 02/M01 A3005 RMK AO2 SLP196
                 T00171006 $ =
2018-11-17 04:56 METAR KELZ 170956Z AUTO 27007KT 9SM SCT009 BKN015 OVC026 02/M01 A3003 RMK AO2
                 SNB07E40 SLP189 P0000 T00171006 $ =
2018-11-17 04:38 METAR KELZ 170938Z AUTO 27008KT 3SM -SN BR BKN007 OVC011 02/00 A3003 RMK AO2
                 SNB07 P0000 T00170000 $ =
2018-11-17 04:21 METAR KELZ 170921Z AUTO 27008KT 1SM -SN BR BKN009 OVC013 02/00 A3002 RMK AO2
                 SNB07 CIG 005V011 P0000 T00170000 $ =
2018-11-17 04:13 METAR KELZ 170913Z AUTO 27008KT 2 1/2SM -SN BR BKN009 OVC015 02/00 A3001 RMK AO2
                 SNB07 CIG 007V012 P0000 T00170000 $ =
2018-11-17 03:56 METAR KELZ 170856Z AUTO 27007KT 6SM BR OVC013 02/00 A3001 RMK AO2 SNB34E50
                 SLP182 P0000 60000 T00170000 51016 $ =
2018-11-17 03:52 METAR KELZ 170852Z AUTO 27006KT 5SM BR OVC013 02/00 A3001 RMK AO2 SNB34E50 P0000
                 $ =
2018-11-17 03:43 METAR KELZ 170843Z AUTO 28006KT 2 1/2SM -SN BR OVC011 02/00 A3000 RMK AO2 SNB34
                 P0000 T00170000 $ =
2018-11-17 02:56 METAR KELZ 170756Z AUTO 28010KT 8SM OVC013 02/M01 A2998 RMK AO2 SLP172 T00171006
                 $ =
2018-11-17 01:56 METAR KELZ 170656Z AUTO 28008KT 7SM BKN015 OVC021 02/M01 A2996 RMK AO2 SLP163
                 T00171006 $ =
2018-11-17 01:34 METAR KELZ 170634Z AUTO 29013KT 7SM SCT011 OVC015 02/M01 A2995 RMK AO2 T00171006
                 $ =
2018-11-17 00:56 METAR KELZ 170556Z AUTO 29013KT 5SM BR BKN008 OVC012 02/M01 A2994 RMK AO2 CIG
                 006V011 SLP157 60001 I6009 T00171006 10017 20006 53018 $ =
2018-11-16 23:56 METAR KELZ 170456Z AUTO 28014G20KT 3SM BR OVC006 02/00 A2991 RMK AO2 PK WND
                 29027/0357 RAB15E16FZRAB16E41 SLP148 P0000 I1002 T00170000 400221033 $ =
2018-11-16 23:43 METAR KELZ 170443Z AUTO 28019G27KT 3SM BR OVC004 02/M01 A2991 RMK AO2 PK WND
                 29027/0357 RAB15E16FZRAB16E41 CIG 003V009 P0000 I1001 T00171006 $ =
2018-11-16 23:36 METAR KELZ 170436Z AUTO 28014G20KT 2 1/2SM -FZRA BR OVC004 02/00 A2991 RMK AO2
                 PK WND 29027/0357 RAB15E16FZRAB16 CIG 003V008 P0000 I1001 T00170000 $ =
2018-11-16 23:22 METAR KELZ 170422Z AUTO 28015G22KT 2SM -FZRA BR OVC003 01/00 A2990 RMK AO2 PK
                 WND 29027/0357 RAB15E16FZRAB16 P0000 I1001 T00110000 $ =
2018-11-16 22:56 METAR KELZ 170356Z AUTO 28018G26KT 2SM BR OVC003 01/00 A2990 RMK AO2 PK WND
                 29030/0325 SLP145 I1001 T00110000 $ =
2018-11-16 22:29 METAR KELZ 170329Z AUTO 28021G30KT 2 1/2SM BR OVC004 01/M01 A2989 RMK AO2 PK WND
                 29030/0325 I1001 T00111006 $ =
2018-11-16 21:56 METAR KELZ 170256Z AUTO 27015G28KT 4SM BR OVC007 01/M01 A2988 RMK AO2 PK WND
                 26028/0255 FZRAB27E32 SLP138 P0000 60001 I1002 I3006 T00111011 53012 $ =
2018-11-16 21:40 METAR KELZ 170240Z AUTO 28017G22KT 3SM BR OVC007 01/M01 A2988 RMK AO2 FZRAB27E32
                 CIG 005V011 P0000 I1002 T00111011 $ =
2018-11-16 20:56 METAR KELZ 170156Z AUTO 26012G20KT 2 1/2SM BR OVC007 01/M01 A2986 RMK AO2
                 FZRAEMM CIG 005V010 SLP132 P0000 I1002 T00061011 $ =
2018-11-16 20:54 METAR KELZ 170154Z AUTO 26011G19KT 2 1/2SM BR OVC007 01/M01 A2986 RMK AO2
                 FZRAEMM CIG 005V012 P0000 I1002 $ =
2018-11-16 20:39 METAR KELZ 170139Z AUTO 27012G20KT 3SM BR OVC007 01/M01 A2986 RMK AO2 FZRAEMM
                 P0000 I1001 T00061011 $ =
2018-11-16 20:21 METAR KELZ 170121Z AUTO 25008G19KT 230V300 3SM -FZRA BR OVC008 01/M01 A2985 RMK
                 AO2 CIG 005V012 P0000 I1001 T00061011 $ =
2018-11-16 19:56 METAR KELZ 170056Z AUTO 26010G22KT 2SM -FZRA BR OVC006 01/M01 A2984 RMK AO2
                 RAB24E25FZRAB25 CIG 005V010 SLP127 P0001 I1002 T00061011 $ =
2018-11-16 19:39 METAR KELZ 170039Z AUTO 26014G19KT 2 1/2SM -FZRA BR OVC006 01/M02 A2984 RMK AO2
                 RAB24E25FZRAB25 P0000 I1001 T00061017 $ =
2018-11-16 19:31 METAR KELZ 170031Z AUTO 26007G21KT 220V290 3SM -FZRA BR OVC007 01/M02 A2984 RMK
                 AO2 RAB24E25FZRAB25 P0000 I1000 T00061017 $ =
2018-11-16 18:56 METAR KELZ 162356Z AUTO 27011G22KT 4SM BR OVC007 00/M02 A2983 RMK AO2 CIG
                 006V011 SLP122 60000 I1000 I6000 T00001022 10017 20000 53013 $ =
2018-11-16 17:56 METAR KELZ 162256Z AUTO 27011G16KT 4SM BR OVC008 00/M02 A2980 RMK AO2 SLP114
                 I1000 T00001022 $ =
2018-11-16 16:56 METAR KELZ 162156Z AUTO 24008G21KT 4SM BR OVC009 00/M02 A2979 RMK AO2 SLP109
                 I1000 T00001022 $ =
2018-11-16 16:54 METAR KELZ 162154Z AUTO 25011G21KT 3SM BR OVC009 00/M02 A2978 RMK AO2 I1000 $ =
2018-11-16 15:56 METAR KELZ 162056Z AUTO 25007G20KT 230V290 5SM HZ OVC011 01/M03 A2977 RMK AO2
                 SLP103 60000 T00061028 53015 =
2018-11-16 15:36 METAR KELZ 162036Z AUTO 26015G23KT 6SM HZ OVC014 01/M03 A2976 RMK AO2 T00061028
                 =
2018-11-16 14:56 METAR KELZ 161956Z AUTO 27018G24KT 10SM OVC019 01/M04 A2975 RMK AO2 SNB29E41
                 SLP094 P0000 T00111039 =
2018-11-16 13:56 METAR KELZ 161856Z AUTO 25013G25KT 10SM OVC016 01/M02 A2972 RMK AO2 PK WND
                 24026/1832 UPB1758E02B28E32B40E53RAB32E40SNE1758 SLP087 P0000 T00111022 $ =
2018-11-16 13:53 METAR KELZ 161853Z AUTO 27016G25KT 8SM OVC016 01/M02 A2972 RMK AO2 PK WND
                 24026/1832 UPB1758E02B28E32B40E53RAB32E40SNE1758 P0000 $ =
2018-11-16 13:32 METAR KELZ 161832Z AUTO 26014G26KT 3SM -RA BKN014 OVC019 01/M02 A2972 RMK AO2 PK
                 WND 24026/1832 UPB1758E02B28E32RAB32SNE1758 P0000 T00111022 $ =
2018-11-16 12:56 METAR KELZ 161756Z AUTO 26013G22KT 5SM -SN BKN016 OVC023 02/M02 A2971 RMK AO2
                 SLP083 P0000 6//// T00171022 10022 21011 51002 $ =
2018-11-16 12:35 METAR KELZ 161735Z AUTO 27016G24KT 3SM -SN SCT012 BKN017 OVC024 02/M02 A2971 RMK
                 AO2 P0000 T00171022 $ =
2018-11-16 12:13 METAR KELZ 161713Z AUTO 24014G21KT 1 1/4SM -SN BKN013 BKN018 OVC024 02/M02 A2971
                 RMK AO2 P0000 T00171017 $ =
2018-11-16 11:56 METAR KELZ 161656Z AUTO 25009G15KT 220V290 2SM -SN BKN013 OVC022 02/M01 A2971
                 RMK AO2 UPB1559E09SNB14E21B48 SLP083 P0000 T00221011 $ =
2018-11-16 10:56 METAR KELZ 161556Z AUTO 27013G25KT 7SM BKN011 OVC014 02/M01 A2971 RMK AO2
                 SNB10E29 SLP083 P0000 T00171011 $ =
2018-11-16 10:33 METAR KELZ 161533Z AUTO 26013G20KT 5SM HZ OVC010 02/M01 A2970 RMK AO2 SNB10E29
                 P0000 T00221011 $ =
2018-11-16 10:25 METAR KELZ 161525Z AUTO 27009KT 2SM -SN BR OVC012 02/M01 A2970 RMK AO2 SNB10
                 P0000 T00171006 $ =
2018-11-16 10:19 METAR KELZ 161519Z AUTO 24008G18KT 3/4SM -SN BR BKN008 BKN014 OVC020 02/M01
                 A2970 RMK AO2 SNB10 P0000 T00171006 $ =
2018-11-16 10:17 METAR KELZ 161517Z AUTO 25011G18KT 3/4SM -SN BR BKN010 BKN014 OVC020 02/M01
                 A2970 RMK AO2 SNB10 P0000 T00171006 $ =

Support USWX by starting your Amazon purchase here.